Maytown, Kentucky
Current Conditions -  °F | °C
As of 9:53 AM on Sunday 23 Nov 2014 (Local Time) from KJKL Reporting Station
Few Clouds Few Clouds  
Wind Chill: 53°   Ceiling: Unl
Heat Index: 53°   Visibility: 10mi
Dew Point: 36°   Wind: 0mph
Humidity: 52%   Direction: NA
Pressure: 29.98"   Gusts: NA
Location:  37.7524°N, 83.5047°W
Report Text: KJKL 231453Z AUTO 00000KT 10SM FEW075 12/02 A2998 RMK AO2 SLP151 T01170022 58023
Loading
Personal Weather Stations






























Interactive Weather Map New forecast layout! Learn more

10-Day Weather Forecast

Advertisements
Track Severe Weather on mobile